sensor_id;sensor_type;location;lat;lon;timestamp;P1;durP1;ratioP1;P2;durP2;ratioP2
20896;SDS011;10608;42.600;23.398;2024-02-28T00:01:50;39.57;;;36.37;;
20896;SDS011;10608;42.600;23.398;2024-02-28T00:04:17;44.90;;;41.60;;
20896;SDS011;10608;42.600;23.398;2024-02-28T00:06:43;51.47;;;47.77;;
20896;SDS011;10608;42.600;23.398;2024-02-28T00:09:09;54.40;;;50.77;;
20896;SDS011;10608;42.600;23.398;2024-02-28T00:11:36;51.33;;;47.07;;
20896;SDS011;10608;42.600;23.398;2024-02-28T00:14:01;48.00;;;44.13;;
20896;SDS011;10608;42.600;23.398;2024-02-28T00:16:27;41.03;;;37.73;;
20896;SDS011;10608;42.600;23.398;2024-02-28T00:18:53;40.40;;;37.20;;
20896;SDS011;10608;42.600;23.398;2024-02-28T00:21:18;33.90;;;30.80;;
20896;SDS011;10608;42.600;23.398;2024-02-28T00:23:43;34.53;;;30.93;;
20896;SDS011;10608;42.600;23.398;2024-02-28T00:26:09;34.50;;;31.20;;
20896;SDS011;10608;42.600;23.398;2024-02-28T00:28:36;39.40;;;35.77;;
20896;SDS011;10608;42.600;23.398;2024-02-28T00:31:01;39.97;;;36.57;;
20896;SDS011;10608;42.600;23.398;2024-02-28T00:33:27;44.57;;;40.80;;
20896;SDS011;10608;42.600;23.398;2024-02-28T00:35:52;52.73;;;48.87;;
20896;SDS011;10608;42.600;23.398;2024-02-28T00:38:18;44.23;;;40.07;;
20896;SDS011;10608;42.600;23.398;2024-02-28T00:40:44;37.57;;;33.77;;
20896;SDS011;10608;42.600;23.398;2024-02-28T00:43:09;43.50;;;39.80;;
20896;SDS011;10608;42.600;23.398;2024-02-28T00:45:35;48.97;;;44.93;;
20896;SDS011;10608;42.600;23.398;2024-02-28T00:48:00;45.40;;;41.27;;
20896;SDS011;10608;42.600;23.398;2024-02-28T00:50:26;38.93;;;35.83;;
20896;SDS011;10608;42.600;23.398;2024-02-28T00:52:51;45.87;;;42.07;;
20896;SDS011;10608;42.600;23.398;2024-02-28T00:55:16;44.30;;;40.60;;
20896;SDS011;10608;42.600;23.398;2024-02-28T00:57:43;73.47;;;68.20;;
20896;SDS011;10608;42.600;23.398;2024-02-28T01:00:09;82.30;;;76.53;;
20896;SDS011;10608;42.600;23.398;2024-02-28T01:02:35;51.30;;;47.37;;
20896;SDS011;10608;42.600;23.398;2024-02-28T01:05:01;59.33;;;53.90;;
20896;SDS011;10608;42.600;23.398;2024-02-28T01:07:26;54.87;;;50.83;;
20896;SDS011;10608;42.600;23.398;2024-02-28T01:09:51;49.43;;;45.13;;
20896;SDS011;10608;42.600;23.398;2024-02-28T01:12:17;75.53;;;70.33;;
20896;SDS011;10608;42.600;23.398;2024-02-28T01:14:42;46.50;;;42.37;;
20896;SDS011;10608;42.600;23.398;2024-02-28T01:17:08;45.77;;;41.87;;
20896;SDS011;10608;42.600;23.398;2024-02-28T01:19:33;42.53;;;39.17;;
20896;SDS011;10608;42.600;23.398;2024-02-28T01:21:58;46.17;;;42.00;;
20896;SDS011;10608;42.600;23.398;2024-02-28T01:24:24;109.47;;;102.70;;
20896;SDS011;10608;42.600;23.398;2024-02-28T01:26:49;57.30;;;52.63;;
20896;SDS011;10608;42.600;23.398;2024-02-28T01:29:16;57.93;;;53.43;;
20896;SDS011;10608;42.600;23.398;2024-02-28T01:31:41;55.63;;;51.53;;
20896;SDS011;10608;42.600;23.398;2024-02-28T01:34:06;48.73;;;44.77;;
20896;SDS011;10608;42.600;23.398;2024-02-28T01:36:32;65.07;;;60.20;;
20896;SDS011;10608;42.600;23.398;2024-02-28T01:38:57;55.57;;;51.30;;
20896;SDS011;10608;42.600;23.398;2024-02-28T01:41:23;41.93;;;38.60;;
20896;SDS011;10608;42.600;23.398;2024-02-28T01:43:48;48.70;;;44.87;;
20896;SDS011;10608;42.600;23.398;2024-02-28T01:46:20;52.37;;;48.60;;
20896;SDS011;10608;42.600;23.398;2024-02-28T01:48:50;51.07;;;47.10;;
20896;SDS011;10608;42.600;23.398;2024-02-28T01:51:16;46.23;;;42.67;;
20896;SDS011;10608;42.600;23.398;2024-02-28T01:53:42;47.93;;;43.67;;
20896;SDS011;10608;42.600;23.398;2024-02-28T01:56:09;61.47;;;56.73;;
20896;SDS011;10608;42.600;23.398;2024-02-28T01:58:36;51.77;;;47.47;;
20896;SDS011;10608;42.600;23.398;2024-02-28T02:01:02;53.00;;;48.37;;
20896;SDS011;10608;42.600;23.398;2024-02-28T02:03:28;64.93;;;60.43;;
20896;SDS011;10608;42.600;23.398;2024-02-28T02:05:54;57.90;;;53.43;;
20896;SDS011;10608;42.600;23.398;2024-02-28T02:08:19;53.60;;;49.23;;
20896;SDS011;10608;42.600;23.398;2024-02-28T02:10:45;187.67;;;176.57;;
20896;SDS011;10608;42.600;23.398;2024-02-28T02:13:11;72.27;;;67.03;;
20896;SDS011;10608;42.600;23.398;2024-02-28T02:15:37;37.40;;;33.57;;
20896;SDS011;10608;42.600;23.398;2024-02-28T02:18:03;37.27;;;33.80;;
20896;SDS011;10608;42.600;23.398;2024-02-28T02:20:29;47.93;;;43.97;;
20896;SDS011;10608;42.600;23.398;2024-02-28T02:22:57;48.90;;;44.67;;
20896;SDS011;10608;42.600;23.398;2024-02-28T02:25:23;47.30;;;43.37;;
20896;SDS011;10608;42.600;23.398;2024-02-28T02:27:48;49.27;;;44.33;;
20896;SDS011;10608;42.600;23.398;2024-02-28T02:30:14;52.60;;;48.70;;
20896;SDS011;10608;42.600;23.398;2024-02-28T02:32:39;43.37;;;39.50;;
20896;SDS011;10608;42.600;23.398;2024-02-28T02:35:05;43.07;;;39.47;;
20896;SDS011;10608;42.600;23.398;2024-02-28T02:37:30;43.37;;;39.27;;
20896;SDS011;10608;42.600;23.398;2024-02-28T02:39:56;42.13;;;38.83;;
20896;SDS011;10608;42.600;23.398;2024-02-28T02:42:21;50.80;;;46.27;;
20896;SDS011;10608;42.600;23.398;2024-02-28T02:44:46;47.43;;;43.50;;
20896;SDS011;10608;42.600;23.398;2024-02-28T02:47:12;55.63;;;51.33;;
20896;SDS011;10608;42.600;23.398;2024-02-28T02:49:37;57.13;;;52.37;;
20896;SDS011;10608;42.600;23.398;2024-02-28T02:52:03;40.27;;;36.60;;
20896;SDS011;10608;42.600;23.398;2024-02-28T02:54:28;46.47;;;42.33;;
20896;SDS011;10608;42.600;23.398;2024-02-28T02:56:54;122.17;;;115.07;;
20896;SDS011;10608;42.600;23.398;2024-02-28T02:59:19;62.43;;;58.07;;
20896;SDS011;10608;42.600;23.398;2024-02-28T03:01:46;48.23;;;43.80;;
20896;SDS011;10608;42.600;23.398;2024-02-28T03:04:12;48.20;;;44.33;;
20896;SDS011;10608;42.600;23.398;2024-02-28T03:06:38;46.50;;;42.33;;
20896;SDS011;10608;42.600;23.398;2024-02-28T03:09:03;45.57;;;42.00;;
20896;SDS011;10608;42.600;23.398;2024-02-28T03:11:28;44.83;;;41.00;;
20896;SDS011;10608;42.600;23.398;2024-02-28T03:13:54;42.07;;;38.20;;
20896;SDS011;10608;42.600;23.398;2024-02-28T03:16:19;39.33;;;35.43;;
20896;SDS011;10608;42.600;23.398;2024-02-28T03:18:45;41.60;;;37.50;;
20896;SDS011;10608;42.600;23.398;2024-02-28T03:21:10;36.87;;;33.47;;
20896;SDS011;10608;42.600;23.398;2024-02-28T03:23:36;35.30;;;32.17;;
20896;SDS011;10608;42.600;23.398;2024-02-28T03:26:01;30.73;;;27.67;;
20896;SDS011;10608;42.600;23.398;2024-02-28T03:28:28;33.03;;;29.57;;
20896;SDS011;10608;42.600;23.398;2024-02-28T03:30:53;35.03;;;31.63;;
20896;SDS011;10608;42.600;23.398;2024-02-28T03:33:19;43.63;;;38.93;;
20896;SDS011;10608;42.600;23.398;2024-02-28T03:35:44;45.00;;;40.80;;
20896;SDS011;10608;42.600;23.398;2024-02-28T03:38:11;70.77;;;65.30;;
20896;SDS011;10608;42.600;23.398;2024-02-28T03:40:36;46.13;;;41.87;;
20896;SDS011;10608;42.600;23.398;2024-02-28T03:43:02;45.47;;;41.67;;
20896;SDS011;10608;42.600;23.398;2024-02-28T03:45:28;42.07;;;38.03;;
20896;SDS011;10608;42.600;23.398;2024-02-28T03:47:54;47.00;;;42.47;;
20896;SDS011;10608;42.600;23.398;2024-02-28T03:50:20;45.80;;;41.43;;
20896;SDS011;10608;42.600;23.398;2024-02-28T03:52:45;47.00;;;43.10;;
20896;SDS011;10608;42.600;23.398;2024-02-28T03:55:10;47.43;;;42.93;;
20896;SDS011;10608;42.600;23.398;2024-02-28T03:57:36;54.07;;;49.80;;
20896;SDS011;10608;42.600;23.398;2024-02-28T04:00:01;55.70;;;51.10;;
20896;SDS011;10608;42.600;23.398;2024-02-28T04:02:27;67.10;;;62.23;;
20896;SDS011;10608;42.600;23.398;2024-02-28T04:04:53;63.83;;;59.27;;
20896;SDS011;10608;42.600;23.398;2024-02-28T04:07:18;97.93;;;91.37;;
20896;SDS011;10608;42.600;23.398;2024-02-28T04:09:44;40.73;;;36.87;;
20896;SDS011;10608;42.600;23.398;2024-02-28T04:12:09;51.33;;;46.80;;
20896;SDS011;10608;42.600;23.398;2024-02-28T04:14:37;117.77;;;109.67;;
20896;SDS011;10608;42.600;23.398;2024-02-28T04:17:03;50.43;;;46.13;;
20896;SDS011;10608;42.600;23.398;2024-02-28T04:19:32;56.53;;;52.07;;
20896;SDS011;10608;42.600;23.398;2024-02-28T04:21:58;54.73;;;50.23;;
20896;SDS011;10608;42.600;23.398;2024-02-28T04:24:23;47.17;;;43.03;;
20896;SDS011;10608;42.600;23.398;2024-02-28T04:26:48;45.63;;;41.97;;
20896;SDS011;10608;42.600;23.398;2024-02-28T04:29:14;45.13;;;40.73;;
20896;SDS011;10608;42.600;23.398;2024-02-28T04:31:39;42.93;;;39.23;;
20896;SDS011;10608;42.600;23.398;2024-02-28T04:34:05;40.80;;;37.27;;
20896;SDS011;10608;42.600;23.398;2024-02-28T04:36:30;41.93;;;37.93;;
20896;SDS011;10608;42.600;23.398;2024-02-28T04:38:56;39.77;;;36.17;;
20896;SDS011;10608;42.600;23.398;2024-02-28T04:41:21;36.97;;;33.27;;
20896;SDS011;10608;42.600;23.398;2024-02-28T04:43:47;55.70;;;51.53;;
20896;SDS011;10608;42.600;23.398;2024-02-28T04:46:12;42.77;;;38.80;;
20896;SDS011;10608;42.600;23.398;2024-02-28T04:48:38;62.87;;;58.30;;
20896;SDS011;10608;42.600;23.398;2024-02-28T04:51:03;78.57;;;73.47;;
20896;SDS011;10608;42.600;23.398;2024-02-28T04:53:28;42.10;;;37.63;;
20896;SDS011;10608;42.600;23.398;2024-02-28T04:55:54;56.80;;;52.27;;
20896;SDS011;10608;42.600;23.398;2024-02-28T04:58:19;41.03;;;37.57;;
20896;SDS011;10608;42.600;23.398;2024-02-28T05:00:45;44.70;;;40.90;;
20896;SDS011;10608;42.600;23.398;2024-02-28T05:03:11;39.57;;;36.03;;
20896;SDS011;10608;42.600;23.398;2024-02-28T05:05:36;41.50;;;37.60;;
20896;SDS011;10608;42.600;23.398;2024-02-28T05:08:01;54.50;;;49.40;;
20896;SDS011;10608;42.600;23.398;2024-02-28T05:10:27;52.63;;;48.20;;
20896;SDS011;10608;42.600;23.398;2024-02-28T05:12:52;73.03;;;67.93;;
20896;SDS011;10608;42.600;23.398;2024-02-28T05:15:18;59.73;;;55.07;;
20896;SDS011;10608;42.600;23.398;2024-02-28T05:17:44;37.13;;;33.17;;
20896;SDS011;10608;42.600;23.398;2024-02-28T05:20:10;57.30;;;52.60;;
20896;SDS011;10608;42.600;23.398;2024-02-28T05:22:35;35.57;;;31.97;;
20896;SDS011;10608;42.600;23.398;2024-02-28T05:25:01;38.13;;;34.77;;
20896;SDS011;10608;42.600;23.398;2024-02-28T05:27:26;121.57;;;114.57;;
20896;SDS011;10608;42.600;23.398;2024-02-28T05:29:52;39.40;;;35.70;;
20896;SDS011;10608;42.600;23.398;2024-02-28T05:32:17;58.10;;;53.83;;
20896;SDS011;10608;42.600;23.398;2024-02-28T05:34:43;39.57;;;36.10;;
20896;SDS011;10608;42.600;23.398;2024-02-28T05:37:10;37.70;;;34.00;;
20896;SDS011;10608;42.600;23.398;2024-02-28T05:39:36;38.80;;;34.83;;
20896;SDS011;10608;42.600;23.398;2024-02-28T05:42:01;40.47;;;37.07;;
20896;SDS011;10608;42.600;23.398;2024-02-28T05:44:27;44.40;;;40.80;;
20896;SDS011;10608;42.600;23.398;2024-02-28T05:46:52;56.47;;;52.07;;
20896;SDS011;10608;42.600;23.398;2024-02-28T05:49:18;66.77;;;62.10;;
20896;SDS011;10608;42.600;23.398;2024-02-28T05:51:43;80.13;;;75.03;;
20896;SDS011;10608;42.600;23.398;2024-02-28T05:54:09;47.67;;;44.13;;
20896;SDS011;10608;42.600;23.398;2024-02-28T05:56:35;39.60;;;36.27;;
20896;SDS011;10608;42.600;23.398;2024-02-28T05:59:00;74.20;;;69.40;;
20896;SDS011;10608;42.600;23.398;2024-02-28T06:01:26;40.80;;;37.50;;
20896;SDS011;10608;42.600;23.398;2024-02-28T06:03:51;52.43;;;48.43;;
20896;SDS011;10608;42.600;23.398;2024-02-28T06:06:17;55.47;;;51.83;;
20896;SDS011;10608;42.600;23.398;2024-02-28T06:08:43;56.40;;;52.07;;
20896;SDS011;10608;42.600;23.398;2024-02-28T06:11:09;43.77;;;40.30;;
20896;SDS011;10608;42.600;23.398;2024-02-28T06:13:35;34.17;;;31.17;;
20896;SDS011;10608;42.600;23.398;2024-02-28T06:16:01;57.07;;;52.97;;
20896;SDS011;10608;42.600;23.398;2024-02-28T06:18:27;27.73;;;24.93;;
20896;SDS011;10608;42.600;23.398;2024-02-28T06:20:53;29.53;;;26.50;;
20896;SDS011;10608;42.600;23.398;2024-02-28T06:23:20;28.70;;;26.03;;
20896;SDS011;10608;42.600;23.398;2024-02-28T06:25:46;27.87;;;24.83;;
20896;SDS011;10608;42.600;23.398;2024-02-28T06:28:11;28.73;;;26.03;;
20896;SDS011;10608;42.600;23.398;2024-02-28T06:30:37;30.57;;;28.00;;
20896;SDS011;10608;42.600;23.398;2024-02-28T06:33:02;29.53;;;26.73;;
20896;SDS011;10608;42.600;23.398;2024-02-28T06:35:29;23.33;;;21.10;;
20896;SDS011;10608;42.600;23.398;2024-02-28T06:37:54;23.50;;;21.03;;
20896;SDS011;10608;42.600;23.398;2024-02-28T06:40:20;25.73;;;22.60;;
20896;SDS011;10608;42.600;23.398;2024-02-28T06:42:45;25.27;;;22.67;;
20896;SDS011;10608;42.600;23.398;2024-02-28T06:45:11;25.23;;;22.50;;
20896;SDS011;10608;42.600;23.398;2024-02-28T06:47:36;27.60;;;25.10;;
20896;SDS011;10608;42.600;23.398;2024-02-28T06:50:02;26.57;;;23.90;;
20896;SDS011;10608;42.600;23.398;2024-02-28T06:52:29;24.47;;;22.20;;
20896;SDS011;10608;42.600;23.398;2024-02-28T06:54:55;25.53;;;23.03;;
20896;SDS011;10608;42.600;23.398;2024-02-28T06:57:20;27.70;;;25.10;;
20896;SDS011;10608;42.600;23.398;2024-02-28T06:59:46;30.93;;;28.23;;
20896;SDS011;10608;42.600;23.398;2024-02-28T07:02:11;22.10;;;19.73;;
20896;SDS011;10608;42.600;23.398;2024-02-28T07:04:37;26.67;;;24.00;;
20896;SDS011;10608;42.600;23.398;2024-02-28T07:07:03;27.13;;;24.20;;
20896;SDS011;10608;42.600;23.398;2024-02-28T07:09:29;25.00;;;22.47;;
20896;SDS011;10608;42.600;23.398;2024-02-28T07:11:57;24.30;;;19.57;;
20896;SDS011;10608;42.600;23.398;2024-02-28T07:14:23;22.97;;;20.30;;
20896;SDS011;10608;42.600;23.398;2024-02-28T07:16:48;24.80;;;22.30;;
20896;SDS011;10608;42.600;23.398;2024-02-28T07:19:13;22.00;;;20.00;;
20896;SDS011;10608;42.600;23.398;2024-02-28T07:21:39;24.50;;;21.43;;
20896;SDS011;10608;42.600;23.398;2024-02-28T07:24:04;28.17;;;25.70;;
20896;SDS011;10608;42.600;23.398;2024-02-28T07:26:31;26.87;;;24.37;;
20896;SDS011;10608;42.600;23.398;2024-02-28T07:28:56;22.67;;;20.27;;
20896;SDS011;10608;42.600;23.398;2024-02-28T07:31:22;20.97;;;18.23;;
20896;SDS011;10608;42.600;23.398;2024-02-28T07:33:47;26.20;;;23.20;;
20896;SDS011;10608;42.600;23.398;2024-02-28T07:36:13;25.80;;;23.20;;
20896;SDS011;10608;42.600;23.398;2024-02-28T07:38:41;26.50;;;23.93;;
20896;SDS011;10608;42.600;23.398;2024-02-28T07:41:06;24.27;;;21.60;;
20896;SDS011;10608;42.600;23.398;2024-02-28T07:43:32;24.20;;;21.80;;
20896;SDS011;10608;42.600;23.398;2024-02-28T07:46:02;26.27;;;23.53;;
20896;SDS011;10608;42.600;23.398;2024-02-28T07:48:28;28.43;;;25.53;;
20896;SDS011;10608;42.600;23.398;2024-02-28T07:50:53;29.03;;;26.43;;
20896;SDS011;10608;42.600;23.398;2024-02-28T07:53:18;26.77;;;24.23;;
20896;SDS011;10608;42.600;23.398;2024-02-28T07:55:44;32.50;;;29.50;;
20896;SDS011;10608;42.600;23.398;2024-02-28T07:58:10;23.30;;;20.90;;
20896;SDS011;10608;42.600;23.398;2024-02-28T08:00:35;25.80;;;23.10;;
20896;SDS011;10608;42.600;23.398;2024-02-28T08:03:01;23.17;;;20.77;;
20896;SDS011;10608;42.600;23.398;2024-02-28T08:05:27;30.10;;;23.37;;
20896;SDS011;10608;42.600;23.398;2024-02-28T08:07:52;29.60;;;26.90;;
20896;SDS011;10608;42.600;23.398;2024-02-28T08:10:18;25.63;;;23.13;;
20896;SDS011;10608;42.600;23.398;2024-02-28T08:12:43;24.80;;;21.27;;
20896;SDS011;10608;42.600;23.398;2024-02-28T08:15:09;25.20;;;21.40;;
20896;SDS011;10608;42.600;23.398;2024-02-28T08:17:35;21.97;;;19.67;;
20896;SDS011;10608;42.600;23.398;2024-02-28T08:20:01;36.00;;;33.03;;
20896;SDS011;10608;42.600;23.398;2024-02-28T08:22:29;27.47;;;25.23;;
20896;SDS011;10608;42.600;23.398;2024-02-28T08:24:55;26.63;;;24.23;;
20896;SDS011;10608;42.600;23.398;2024-02-28T08:27:20;27.97;;;25.37;;
20896;SDS011;10608;42.600;23.398;2024-02-28T08:29:48;29.30;;;26.80;;
20896;SDS011;10608;42.600;23.398;2024-02-28T08:32:14;34.57;;;31.33;;
20896;SDS011;10608;42.600;23.398;2024-02-28T08:34:43;30.80;;;27.90;;
20896;SDS011;10608;42.600;23.398;2024-02-28T08:37:09;21.83;;;19.60;;
20896;SDS011;10608;42.600;23.398;2024-02-28T08:39:34;23.33;;;20.60;;
20896;SDS011;10608;42.600;23.398;2024-02-28T08:42:00;37.17;;;33.97;;
20896;SDS011;10608;42.600;23.398;2024-02-28T08:44:25;21.23;;;19.13;;
20896;SDS011;10608;42.600;23.398;2024-02-28T08:46:51;21.83;;;18.47;;
20896;SDS011;10608;42.600;23.398;2024-02-28T08:49:16;21.03;;;19.00;;
20896;SDS011;10608;42.600;23.398;2024-02-28T08:51:42;21.07;;;18.83;;
20896;SDS011;10608;42.600;23.398;2024-02-28T08:54:07;23.53;;;21.23;;
20896;SDS011;10608;42.600;23.398;2024-02-28T08:56:33;22.30;;;19.77;;
20896;SDS011;10608;42.600;23.398;2024-02-28T08:58:59;24.07;;;21.67;;
20896;SDS011;10608;42.600;23.398;2024-02-28T09:01:24;20.23;;;18.43;;
20896;SDS011;10608;42.600;23.398;2024-02-28T09:03:50;21.13;;;19.07;;
20896;SDS011;10608;42.600;23.398;2024-02-28T09:06:15;22.57;;;19.20;;
20896;SDS011;10608;42.600;23.398;2024-02-28T09:08:41;23.13;;;20.93;;
20896;SDS011;10608;42.600;23.398;2024-02-28T09:11:06;22.50;;;20.20;;
20896;SDS011;10608;42.600;23.398;2024-02-28T09:13:32;23.20;;;21.07;;
20896;SDS011;10608;42.600;23.398;2024-02-28T09:15:57;24.07;;;21.57;;
20896;SDS011;10608;42.600;23.398;2024-02-28T09:18:23;37.03;;;33.97;;
20896;SDS011;10608;42.600;23.398;2024-02-28T09:20:48;27.17;;;24.77;;
20896;SDS011;10608;42.600;23.398;2024-02-28T09:23:14;28.10;;;25.63;;
20896;SDS011;10608;42.600;23.398;2024-02-28T09:25:39;27.83;;;25.33;;
20896;SDS011;10608;42.600;23.398;2024-02-28T09:28:05;27.73;;;25.43;;
20896;SDS011;10608;42.600;23.398;2024-02-28T09:30:30;27.67;;;25.40;;
20896;SDS011;10608;42.600;23.398;2024-02-28T09:32:56;25.93;;;23.60;;
20896;SDS011;10608;42.600;23.398;2024-02-28T09:35:21;25.60;;;23.13;;
20896;SDS011;10608;42.600;23.398;2024-02-28T09:37:47;21.33;;;19.07;;
20896;SDS011;10608;42.600;23.398;2024-02-28T09:40:12;19.50;;;17.60;;
20896;SDS011;10608;42.600;23.398;2024-02-28T09:42:38;19.60;;;17.60;;
20896;SDS011;10608;42.600;23.398;2024-02-28T09:45:04;20.97;;;19.17;;
20896;SDS011;10608;42.600;23.398;2024-02-28T09:47:33;22.10;;;17.63;;
20896;SDS011;10608;42.600;23.398;2024-02-28T09:49:58;23.00;;;20.67;;
20896;SDS011;10608;42.600;23.398;2024-02-28T09:52:27;23.60;;;21.43;;
20896;SDS011;10608;42.600;23.398;2024-02-28T09:54:53;21.77;;;19.63;;
20896;SDS011;10608;42.600;23.398;2024-02-28T09:57:18;18.83;;;16.83;;
20896;SDS011;10608;42.600;23.398;2024-02-28T09:59:44;25.63;;;23.37;;
20896;SDS011;10608;42.600;23.398;2024-02-28T10:02:11;19.77;;;17.77;;
20896;SDS011;10608;42.600;23.398;2024-02-28T10:04:37;19.00;;;16.90;;
20896;SDS011;10608;42.600;23.398;2024-02-28T10:07:10;20.33;;;17.00;;
20896;SDS011;10608;42.600;23.398;2024-02-28T10:09:39;41.87;;;38.97;;
20896;SDS011;10608;42.600;23.398;2024-02-28T10:12:08;44.27;;;41.13;;
20896;SDS011;10608;42.600;23.398;2024-02-28T10:14:33;25.93;;;23.83;;
20896;SDS011;10608;42.600;23.398;2024-02-28T10:16:59;22.47;;;19.77;;
20896;SDS011;10608;42.600;23.398;2024-02-28T10:19:24;22.63;;;20.13;;
20896;SDS011;10608;42.600;23.398;2024-02-28T10:21:50;23.57;;;21.17;;
20896;SDS011;10608;42.600;23.398;2024-02-28T10:24:16;23.13;;;21.00;;
20896;SDS011;10608;42.600;23.398;2024-02-28T10:26:45;21.17;;;19.53;;
20896;SDS011;10608;42.600;23.398;2024-02-28T10:29:20;20.33;;;18.57;;
20896;SDS011;10608;42.600;23.398;2024-02-28T10:31:46;19.70;;;17.70;;
20896;SDS011;10608;42.600;23.398;2024-02-28T10:34:12;23.37;;;21.23;;
20896;SDS011;10608;42.600;23.398;2024-02-28T10:36:41;23.67;;;21.53;;
20896;SDS011;10608;42.600;23.398;2024-02-28T10:39:08;24.43;;;22.27;;
20896;SDS011;10608;42.600;23.398;2024-02-28T10:41:35;24.57;;;22.63;;
20896;SDS011;10608;42.600;23.398;2024-02-28T10:44:03;21.57;;;20.00;;
20896;SDS011;10608;42.600;23.398;2024-02-28T10:46:28;25.87;;;23.90;;
20896;SDS011;10608;42.600;23.398;2024-02-28T10:48:54;22.70;;;20.90;;
20896;SDS011;10608;42.600;23.398;2024-02-28T10:51:20;23.40;;;21.30;;
20896;SDS011;10608;42.600;23.398;2024-02-28T10:53:50;23.03;;;20.80;;
20896;SDS011;10608;42.600;23.398;2024-02-28T10:56:27;29.10;;;26.60;;
20896;SDS011;10608;42.600;23.398;2024-02-28T10:58:57;24.87;;;22.77;;
20896;SDS011;10608;42.600;23.398;2024-02-28T11:01:24;24.00;;;21.87;;
20896;SDS011;10608;42.600;23.398;2024-02-28T11:03:51;20.60;;;18.80;;
20896;SDS011;10608;42.600;23.398;2024-02-28T11:06:20;21.20;;;19.33;;
20896;SDS011;10608;42.600;23.398;2024-02-28T11:08:47;22.23;;;20.37;;
20896;SDS011;10608;42.600;23.398;2024-02-28T11:11:14;25.50;;;23.20;;
20896;SDS011;10608;42.600;23.398;2024-02-28T11:13:50;21.53;;;19.70;;
20896;SDS011;10608;42.600;23.398;2024-02-28T11:16:16;23.83;;;21.47;;
20896;SDS011;10608;42.600;23.398;2024-02-28T11:18:48;25.37;;;22.80;;
20896;SDS011;10608;42.600;23.398;2024-02-28T11:21:17;21.87;;;18.90;;
20896;SDS011;10608;42.600;23.398;2024-02-28T11:23:46;21.60;;;19.57;;
20896;SDS011;10608;42.600;23.398;2024-02-28T11:26:13;19.40;;;17.40;;
20896;SDS011;10608;42.600;23.398;2024-02-28T11:28:38;18.93;;;17.37;;
20896;SDS011;10608;42.600;23.398;2024-02-28T11:31:04;19.90;;;18.30;;
20896;SDS011;10608;42.600;23.398;2024-02-28T11:33:30;21.93;;;19.37;;
20896;SDS011;10608;42.600;23.398;2024-02-28T11:35:59;24.57;;;22.50;;
20896;SDS011;10608;42.600;23.398;2024-02-28T11:38:27;21.50;;;19.30;;
20896;SDS011;10608;42.600;23.398;2024-02-28T11:40:53;19.20;;;17.53;;
20896;SDS011;10608;42.600;23.398;2024-02-28T11:43:20;19.23;;;17.63;;
20896;SDS011;10608;42.600;23.398;2024-02-28T11:45:46;21.40;;;19.53;;
20896;SDS011;10608;42.600;23.398;2024-02-28T11:48:14;18.50;;;16.40;;
20896;SDS011;10608;42.600;23.398;2024-02-28T11:50:40;17.90;;;16.20;;
20896;SDS011;10608;42.600;23.398;2024-02-28T11:53:06;21.57;;;19.67;;
20896;SDS011;10608;42.600;23.398;2024-02-28T11:55:32;17.90;;;16.30;;
20896;SDS011;10608;42.600;23.398;2024-02-28T11:57:58;19.33;;;17.60;;
20896;SDS011;10608;42.600;23.398;2024-02-28T12:00:23;21.17;;;19.33;;
20896;SDS011;10608;42.600;23.398;2024-02-28T12:02:48;19.57;;;17.60;;
20896;SDS011;10608;42.600;23.398;2024-02-28T12:05:14;18.27;;;16.57;;
20896;SDS011;10608;42.600;23.398;2024-02-28T12:07:39;17.60;;;15.80;;
20896;SDS011;10608;42.600;23.398;2024-02-28T12:10:06;20.93;;;19.03;;
20896;SDS011;10608;42.600;23.398;2024-02-28T12:12:34;20.57;;;18.47;;
20896;SDS011;10608;42.600;23.398;2024-02-28T12:15:00;20.37;;;18.37;;
20896;SDS011;10608;42.600;23.398;2024-02-28T12:17:25;22.80;;;20.70;;
20896;SDS011;10608;42.600;23.398;2024-02-28T12:19:51;28.90;;;19.97;;
20896;SDS011;10608;42.600;23.398;2024-02-28T12:22:17;20.53;;;18.10;;
20896;SDS011;10608;42.600;23.398;2024-02-28T12:24:43;18.00;;;16.50;;
20896;SDS011;10608;42.600;23.398;2024-02-28T12:27:08;16.60;;;14.90;;
20896;SDS011;10608;42.600;23.398;2024-02-28T12:29:34;17.87;;;15.97;;
20896;SDS011;10608;42.600;23.398;2024-02-28T12:31:59;22.70;;;20.43;;
20896;SDS011;10608;42.600;23.398;2024-02-28T12:34:25;19.77;;;18.20;;
20896;SDS011;10608;42.600;23.398;2024-02-28T12:36:51;17.27;;;15.77;;
20896;SDS011;10608;42.600;23.398;2024-02-28T12:39:17;16.20;;;14.63;;
20896;SDS011;10608;42.600;23.398;2024-02-28T12:41:42;17.27;;;14.17;;
20896;SDS011;10608;42.600;23.398;2024-02-28T12:44:08;14.93;;;13.37;;
20896;SDS011;10608;42.600;23.398;2024-02-28T12:46:35;15.63;;;14.27;;
20896;SDS011;10608;42.600;23.398;2024-02-28T12:49:00;13.27;;;12.07;;
20896;SDS011;10608;42.600;23.398;2024-02-28T12:51:45;15.60;;;14.17;;
20896;SDS011;10608;42.600;23.398;2024-02-28T12:54:11;14.07;;;12.77;;
20896;SDS011;10608;42.600;23.398;2024-02-28T12:56:41;14.93;;;13.63;;
20896;SDS011;10608;42.600;23.398;2024-02-28T12:59:10;14.43;;;13.13;;
20896;SDS011;10608;42.600;23.398;2024-02-28T13:01:35;14.80;;;13.33;;
20896;SDS011;10608;42.600;23.398;2024-02-28T13:04:01;14.97;;;13.57;;
20896;SDS011;10608;42.600;23.398;2024-02-28T13:06:27;14.50;;;13.23;;
20896;SDS011;10608;42.600;23.398;2024-02-28T13:08:53;16.57;;;14.93;;
20896;SDS011;10608;42.600;23.398;2024-02-28T13:11:19;16.20;;;14.80;;
20896;SDS011;10608;42.600;23.398;2024-02-28T13:13:48;16.80;;;15.27;;
20896;SDS011;10608;42.600;23.398;2024-02-28T13:16:14;15.83;;;14.63;;
20896;SDS011;10608;42.600;23.398;2024-02-28T13:18:43;16.97;;;15.43;;
20896;SDS011;10608;42.600;23.398;2024-02-28T13:21:09;16.37;;;14.90;;
20896;SDS011;10608;42.600;23.398;2024-02-28T13:23:35;14.50;;;13.23;;
20896;SDS011;10608;42.600;23.398;2024-02-28T13:26:01;13.23;;;12.03;;
20896;SDS011;10608;42.600;23.398;2024-02-28T13:28:27;16.17;;;14.40;;
20896;SDS011;10608;42.600;23.398;2024-02-28T13:30:58;22.03;;;20.43;;
20896;SDS011;10608;42.600;23.398;2024-02-28T13:33:24;18.40;;;17.20;;
20896;SDS011;10608;42.600;23.398;2024-02-28T13:35:50;19.27;;;17.90;;
20896;SDS011;10608;42.600;23.398;2024-02-28T13:38:16;19.20;;;17.97;;
20896;SDS011;10608;42.600;23.398;2024-02-28T13:40:42;19.17;;;17.57;;
20896;SDS011;10608;42.600;23.398;2024-02-28T13:43:09;17.43;;;16.13;;
20896;SDS011;10608;42.600;23.398;2024-02-28T13:45:35;18.47;;;17.33;;
20896;SDS011;10608;42.600;23.398;2024-02-28T13:48:02;20.07;;;18.33;;
20896;SDS011;10608;42.600;23.398;2024-02-28T13:50:28;17.97;;;16.57;;
20896;SDS011;10608;42.600;23.398;2024-02-28T13:52:57;20.67;;;16.80;;
20896;SDS011;10608;42.600;23.398;2024-02-28T13:55:22;37.10;;;34.87;;
20896;SDS011;10608;42.600;23.398;2024-02-28T13:57:48;39.57;;;37.13;;
20896;SDS011;10608;42.600;23.398;2024-02-28T14:00:14;25.27;;;23.53;;
20896;SDS011;10608;42.600;23.398;2024-02-28T14:02:39;18.67;;;17.30;;